TimeCET,TemperatureF,Dew PointF,Humidity,Sea Level PressureIn,VisibilityMPH,Wind Direction,Wind SpeedMPH,Gust SpeedMPH,PrecipitationIn,Events,Conditions,WindDirDegrees,DateUTC
12:20 AM,51.8,41.0,67,29.71,6.2,South,3.5,-,N/A,,Partly Cloudy,190,2013-03-18 23:20:00
12:50 AM,51.8,41.0,67,29.71,6.2,SW,2.3,-,N/A,,Partly Cloudy,220,2013-03-18 23:50:00
1:20 AM,51.8,42.8,71,29.71,6.2,West,8.1,-,N/A,,Partly Cloudy,260,2013-03-19 00:20:00
1:50 AM,51.8,42.8,71,29.74,6.2,WSW,5.8,-,N/A,,Partly Cloudy,250,2013-03-19 00:50:00
2:20 AM,51.8,42.8,71,29.74,6.2,SW,3.5,-,N/A,,Partly Cloudy,230,2013-03-19 01:20:00
2:50 AM,51.8,42.8,71,29.71,6.2,West,5.8,-,N/A,,Partly Cloudy,260,2013-03-19 01:50:00
3:20 AM,51.8,42.8,71,29.71,6.2,SW,4.6,-,N/A,,Partly Cloudy,230,2013-03-19 02:20:00
3:50 AM,51.8,41.0,67,29.71,6.2,WSW,9.2,-,N/A,,Partly Cloudy,250,2013-03-19 02:50:00
4:20 AM,50.0,41.0,71,29.71,6.2,WSW,6.9,-,N/A,,Partly Cloudy,240,2013-03-19 03:20:00
4:50 AM,53.6,42.8,67,29.71,6.2,West,11.5,-,N/A,,Partly Cloudy,280,2013-03-19 03:50:00
5:20 AM,53.6,42.8,67,29.74,6.2,West,10.4,-,N/A,,Partly Cloudy,270,2013-03-19 04:20:00
5:50 AM,51.8,42.8,71,29.74,-9999.0,North,-9999.0,-,N/A,,Unknown,0,2013-03-19 04:50:00
6:00 AM,51.8,42.8,71,29.74,-9999.0,North,-9999.0,-,N/A,,Unknown,0,2013-03-19 05:00:00
6:20 AM,50.0,42.8,76,29.74,6.2,West,6.9,-,N/A,,Partly Cloudy,260,2013-03-19 05:20:00
6:50 AM,51.8,44.6,76,29.77,6.2,SSW,4.6,-,N/A,,Partly Cloudy,210,2013-03-19 05:50:00
7:20 AM,53.6,44.6,72,29.77,6.2,WSW,11.5,-,N/A,,Partly Cloudy,250,2013-03-19 06:20:00
7:50 AM,55.4,46.4,72,29.77,6.2,WSW,9.2,-,N/A,,Partly Cloudy,250,2013-03-19 06:50:00
8:50 AM,57.2,46.4,67,29.77,6.2,West,10.4,-,N/A,,Partly Cloudy,260,2013-03-19 07:50:00
9:20 AM,57.2,44.6,63,29.77,6.2,West,10.4,-,N/A,,Scattered Clouds,260,2013-03-19 08:20:00
9:50 AM,59.0,44.6,59,29.77,6.2,West,10.4,-,N/A,,Partly Cloudy,270,2013-03-19 08:50:00
10:20 AM,59.0,44.6,59,29.80,6.2,West,13.8,-,N/A,,Partly Cloudy,260,2013-03-19 09:20:00
10:50 AM,60.8,44.6,55,29.80,6.2,West,12.7,-,N/A,,Partly Cloudy,280,2013-03-19 09:50:00
11:20 AM,59.0,44.6,59,29.80,6.2,West,15.0,-,N/A,,Partly Cloudy,270,2013-03-19 10:20:00
11:50 AM,60.8,41.0,48,29.80,6.2,West,16.1,-,N/A,,Partly Cloudy,270,2013-03-19 10:50:00
12:20 PM,60.8,42.8,52,29.80,6.2,West,15.0,-,N/A,,Partly Cloudy,280,2013-03-19 11:20:00
12:50 PM,60.8,41.0,48,29.80,6.2,West,15.0,-,N/A,,Partly Cloudy,270,2013-03-19 11:50:00
1:20 PM,60.8,44.6,55,29.80,6.2,WSW,13.8,-,N/A,,Partly Cloudy,250,2013-03-19 12:20:00
1:50 PM,60.8,41.0,48,29.80,-9999.0,West,15.0,-,N/A,,Clear,270,2013-03-19 12:50:00
2:20 PM,60.8,42.8,52,29.80,-9999.0,West,13.8,-,N/A,,Clear,260,2013-03-19 13:20:00
2:50 PM,60.8,42.8,52,29.80,-9999.0,WSW,13.8,-,N/A,,Clear,250,2013-03-19 13:50:00
3:20 PM,60.8,41.0,48,29.80,6.2,West,12.7,-,N/A,,Partly Cloudy,270,2013-03-19 14:20:00
3:50 PM,59.0,42.8,55,29.77,6.2,WSW,12.7,-,N/A,,Partly Cloudy,250,2013-03-19 14:50:00
4:20 PM,59.0,42.8,55,29.80,6.2,West,11.5,-,N/A,,Partly Cloudy,280,2013-03-19 15:20:00
4:50 PM,57.2,41.0,55,29.80,-9999.0,WSW,12.7,-,N/A,,Clear,250,2013-03-19 15:50:00
5:20 PM,57.2,41.0,55,29.80,-9999.0,WSW,12.7,-,N/A,,Clear,250,2013-03-19 16:20:00
5:50 PM,55.4,41.0,58,29.80,-9999.0,WSW,8.1,-,N/A,,Clear,250,2013-03-19 16:50:00
6:20 PM,55.4,41.0,58,29.80,-9999.0,West,3.5,-,N/A,,Clear,260,2013-03-19 17:20:00
6:50 PM,53.6,42.8,67,29.80,-9999.0,SW,8.1,-,N/A,,Clear,230,2013-03-19 17:50:00
7:20 PM,51.8,42.8,71,29.80,-9999.0,Variable,1.2,-,N/A,,Clear,0,2013-03-19 18:20:00
7:50 PM,51.8,42.8,71,29.83,-9999.0,Calm,Calm,-,N/A,,Clear,0,2013-03-19 18:50:00
8:20 PM,51.8,42.8,71,29.83,-9999.0,Variable,2.3,-,N/A,,Clear,0,2013-03-19 19:20:00
8:50 PM,51.8,42.8,71,29.83,-9999.0,ESE,3.5,-,N/A,,Clear,110,2013-03-19 19:50:00
9:20 PM,51.8,42.8,71,29.83,-9999.0,Variable,2.3,-,N/A,,Clear,0,2013-03-19 20:20:00
9:50 PM,50.0,42.8,76,29.83,-9999.0,Variable,1.2,-,N/A,,Clear,0,2013-03-19 20:50:00
10:20 PM,48.2,42.8,82,29.83,-9999.0,West,2.3,-,N/A,,Clear,260,2013-03-19 21:20:00
10:50 PM,50.0,41.0,71,29.83,-9999.0,NE,3.5,-,N/A,,Clear,50,2013-03-19 21:50:00
11:20 PM,46.4,41.0,81,29.83,-9999.0,Variable,2.3,-,N/A,,Clear,0,2013-03-19 22:20:00
11:50 PM,46.4,41.0,81,29.83,-9999.0,West,2.3,-,N/A,,Clear,280,2013-03-19 22:50:00